Kuala Terengganu, Malaysia
Current Conditions -  °F | °C
As of 1:00 PM on Monday 22 Dec 2014 (Local Time) from WMKN Reporting Station
Overcast Overcast  
Wind Chill: 84°   Ceiling: 18000
Heat Index: 92°   Visibility: 6mi
Dew Point: 75°   Wind: 16mph
Humidity: 74%   Direction: 50°NE
Pressure: 29.8"   Gusts: NA
Location:  5.33°N, 103.14°E
Report Text: WMKN 220500Z 05014KT 010V110 9999 FEW010 SCT020 OVC180 29/24 Q1009
Loading
Personal Weather Stations






























Interactive Weather Map New forecast layout! Learn more

10-Day Weather Forecast

Advertisements
Track Severe Weather on mobile